^^
Your Local Weather - Clay, NY Station Historical Data
 
Daily Summary for March 29, 2017 Units:  English    Metric   Both
« Previous Day
Next Day »
Daily Weekly Monthly Yearly Custom
  Current: High: Low: Average:
Temperature: 38.0 °F 39.1 °F 30.1 °F 35.2 °F
Dew Point: 31.7 °F 34.9 °F 27.6 °F 31.6 °F
Humidity: 78% 92% 78% 87%
Wind Speed: 3.0mph 4.0mph 0.0mph 0.4mph
Wind Gust: 6.0mph 7.0mph - -
WindNW - - NW
Pressure: 30.20 in 30.20 in 30.08 in -
Precipitation: 0.00 in      
Historical Graphs
 
 
Tabular Data for March 29, 2017
Time Temperature Dew Point Pressure Wind Wind Speed Wind Gust Humidity Rainfall Rate (Hourly) solar
00:04 39.1 °F 34.7 °F 30.08 in Calm   1.0 mph 84% 0.00 in 0 W/m2
00:10 39.0 °F 34.9 °F 30.08 in Calm     85% 0.00 in 0 W/m2
00:16 38.9 °F 34.8 °F 30.08 in Calm   1.0 mph 85% 0.00 in 0 W/m2
00:22 38.8 °F 34.7 °F 30.08 in Calm   1.0 mph 85% 0.00 in 0 W/m2
00:28 38.8 °F 34.7 °F 30.08 in NNW 1.0 mph 1.0 mph 85% 0.00 in 0 W/m2
00:34 38.8 °F 34.7 °F 30.09 in NNW 1.0 mph 1.0 mph 85% 0.00 in 0 W/m2
00:40 38.8 °F 34.7 °F 30.09 in Calm   1.0 mph 85% 0.00 in 0 W/m2
00:46 38.7 °F 34.6 °F 30.09 in Calm   3.0 mph 85% 0.00 in 0 W/m2
00:52 38.6 °F 34.5 °F 30.09 in NNW 1.0 mph 1.0 mph 85% 0.00 in 0 W/m2
00:58 38.6 °F 34.5 °F 30.09 in NNW 1.0 mph 1.0 mph 85% 0.00 in 0 W/m2
01:04 38.6 °F 34.5 °F 30.09 in NNW 1.0 mph 2.0 mph 85% 0.00 in 0 W/m2
01:10 38.5 °F 34.4 °F 30.09 in Calm     85% 0.00 in 0 W/m2
01:16 38.5 °F 34.4 °F 30.10 in Calm   1.0 mph 85% 0.00 in 0 W/m2
01:22 38.5 °F 34.4 °F 30.09 in Calm     85% 0.00 in 0 W/m2
01:28 38.5 °F 34.4 °F 30.09 in Calm   2.0 mph 85% 0.00 in 0 W/m2
01:34 38.4 °F 34.3 °F 30.10 in Calm   2.0 mph 85% 0.00 in 0 W/m2
01:40 38.4 °F 34.3 °F 30.10 in NNW 1.0 mph 1.0 mph 85% 0.00 in 0 W/m2
01:46 38.4 °F 34.3 °F 30.10 in Calm   2.0 mph 85% 0.00 in 0 W/m2
01:52 38.4 °F 34.3 °F 30.10 in Calm     85% 0.00 in 0 W/m2
01:58 38.3 °F 34.2 °F 30.10 in Calm   2.0 mph 85% 0.00 in 0 W/m2
02:04 38.3 °F 34.2 °F 30.10 in Calm     85% 0.00 in 0 W/m2
02:10 38.3 °F 34.2 °F 30.10 in Calm   1.0 mph 85% 0.00 in 0 W/m2
02:16 38.2 °F 34.1 °F 30.11 in Calm   1.0 mph 85% 0.00 in 0 W/m2
02:22 38.2 °F 34.1 °F 30.10 in Calm   1.0 mph 85% 0.00 in 0 W/m2
02:28 38.2 °F 34.1 °F 30.11 in Calm   1.0 mph 85% 0.00 in 0 W/m2
02:34 38.2 °F 33.8 °F 30.10 in Calm     84% 0.00 in 0 W/m2
02:40 38.2 °F 33.8 °F 30.11 in Calm     84% 0.00 in 0 W/m2
02:46 38.2 °F 33.8 °F 30.11 in Calm     84% 0.00 in 0 W/m2
02:52 38.2 °F 33.8 °F 30.11 in Calm     84% 0.00 in 0 W/m2
02:58 38.2 °F 33.8 °F 30.11 in Calm     84% 0.00 in 0 W/m2
03:04 38.2 °F 33.8 °F 30.11 in Calm   2.0 mph 84% 0.00 in 0 W/m2
03:10 38.1 °F 33.7 °F 30.11 in Calm     84% 0.00 in 0 W/m2
03:16 38.1 °F 33.7 °F 30.11 in Calm     84% 0.00 in 0 W/m2
03:22 38.1 °F 33.7 °F 30.11 in Calm     84% 0.00 in 0 W/m2
03:28 37.9 °F 33.5 °F 30.11 in Calm     84% 0.00 in 0 W/m2
03:34 37.5 °F 33.1 °F 30.11 in Calm     84% 0.00 in 0 W/m2
03:40 37.1 °F 32.7 °F 30.11 in Calm     84% 0.00 in 0 W/m2
03:46 36.8 °F 32.4 °F 30.11 in Calm     84% 0.00 in 0 W/m2
03:52 36.4 °F 32.0 °F 30.12 in Calm     84% 0.00 in 0 W/m2
03:58 36.0 °F 31.9 °F 30.12 in Calm     85% 0.00 in 0 W/m2
04:04 35.7 °F 31.6 °F 30.12 in Calm     85% 0.00 in 0 W/m2
04:10 35.4 °F 31.6 °F 30.12 in Calm     86% 0.00 in 0 W/m2
04:16 35.2 °F 31.4 °F 30.12 in Calm     86% 0.00 in 0 W/m2
04:22 34.9 °F 31.1 °F 30.12 in Calm     86% 0.00 in 0 W/m2
04:28 34.6 °F 31.1 °F 30.12 in Calm     87% 0.00 in 0 W/m2
04:34 34.4 °F 30.9 °F 30.12 in Calm     87% 0.00 in 0 W/m2
04:40 34.1 °F 30.6 °F 30.12 in Calm     87% 0.00 in 0 W/m2
04:46 33.8 °F 30.6 °F 30.13 in Calm     88% 0.00 in 0 W/m2
04:52 33.6 °F 30.4 °F 30.13 in Calm     88% 0.00 in 0 W/m2
04:58 33.3 °F 30.1 °F 30.13 in Calm     88% 0.00 in 0 W/m2
05:04 33.0 °F 29.8 °F 30.13 in Calm     88% 0.00 in 0 W/m2
05:10 32.7 °F 29.5 °F 30.14 in Calm     88% 0.00 in 0 W/m2
05:12 32.7 °F 29.5 °F 30.14 in Calm     88% 0.00 in 0 W/m2
05:18 32.4 °F 29.2 °F 30.14 in Calm     88% 0.00 in 0 W/m2
05:24 32.1 °F 28.9 °F 30.14 in Calm     88% 0.00 in 0 W/m2
05:30 31.9 °F 29.0 °F 30.14 in Calm     89% 0.00 in 0 W/m2
05:36 31.8 °F 28.9 °F 30.14 in Calm     89% 0.00 in 0 W/m2
05:42 31.9 °F 29.0 °F 30.14 in Calm     89% 0.00 in 0 W/m2
05:48 31.7 °F 29.1 °F 30.14 in Calm     90% 0.00 in 0 W/m2
05:54 31.5 °F 28.6 °F 30.14 in Calm     89% 0.00 in 0 W/m2
06:00 31.2 °F 28.6 °F 30.14 in Calm     90% 0.00 in 0 W/m2
06:06 31.2 °F 28.6 °F 30.14 in Calm     90% 0.00 in 0 W/m2
06:12 30.9 °F 28.3 °F 30.15 in Calm     90% 0.00 in 0 W/m2
06:18 30.6 °F 28.0 °F 30.15 in Calm     90% 0.00 in 0 W/m2
06:24 30.4 °F 27.8 °F 30.15 in Calm     90% 0.00 in 0 W/m2
06:30 30.2 °F 27.6 °F 30.15 in Calm     90% 0.00 in 0 W/m2
06:36 30.2 °F 27.6 °F 30.15 in Calm     90% 0.00 in 0 W/m2
06:42 30.5 °F 27.9 °F 30.15 in Calm     90% 0.00 in 0 W/m2
06:48 30.4 °F 28.1 °F 30.16 in Calm     91% 0.00 in 0 W/m2
06:54 30.4 °F 28.1 °F 30.16 in Calm     91% 0.00 in 5 W/m2
07:00 30.3 °F 28.0 °F 30.16 in Calm     91% 0.00 in 9 W/m2
07:06 30.2 °F 27.9 °F 30.16 in Calm     91% 0.00 in 12 W/m2
07:12 30.1 °F 27.8 °F 30.17 in Calm     91% 0.00 in 16 W/m2
07:18 30.1 °F 27.8 °F 30.17 in Calm     91% 0.00 in 19 W/m2
07:24 30.1 °F 27.8 °F 30.17 in Calm     91% 0.00 in 23 W/m2
07:30 30.2 °F 27.9 °F 30.17 in Calm     91% 0.00 in 28 W/m2
07:36 30.5 °F 28.2 °F 30.17 in Calm     91% 0.00 in 37 W/m2
07:42 31.1 °F 29.0 °F 30.17 in Calm     92% 0.00 in 47 W/m2
07:48 31.8 °F 29.7 °F 30.17 in Calm     92% 0.00 in 88 W/m2
07:54 32.5 °F 30.4 °F 30.18 in Calm   1.0 mph 92% 0.00 in 118 W/m2
08:00 33.1 °F 31.0 °F 30.18 in Calm     92% 0.00 in 141 W/m2
08:06 33.7 °F 31.6 °F 30.18 in Calm   2.0 mph 92% 0.00 in 139 W/m2
08:12 34.3 °F 32.2 °F 30.18 in NW 1.0 mph 1.0 mph 92% 0.00 in 128 W/m2
08:18 34.8 °F 32.4 °F 30.19 in NW 1.0 mph 4.0 mph 91% 0.00 in 176 W/m2
08:24 35.3 °F 32.4 °F 30.19 in NW 2.0 mph 5.0 mph 89% 0.00 in 195 W/m2
08:30 35.8 °F 32.0 °F 30.19 in NNE 4.0 mph 4.0 mph 86% 0.00 in 141 W/m2
08:36 36.1 °F 31.7 °F 30.19 in NNW 4.0 mph 7.0 mph 84% 0.00 in 174 W/m2
08:42 36.4 °F 31.1 °F 30.19 in NW 4.0 mph 5.0 mph 81% 0.00 in 211 W/m2
08:48 36.8 °F 31.2 °F 30.19 in NNW 4.0 mph 5.0 mph 80% 0.00 in 169 W/m2
08:54 37.1 °F 31.2 °F 30.19 in NW 4.0 mph 7.0 mph 79% 0.00 in 195 W/m2
09:00 37.6 °F 31.7 °F 30.19 in NNW 4.0 mph 4.0 mph 79% 0.00 in 246 W/m2
09:06 38.0 °F 31.7 °F 30.20 in NW 3.0 mph 6.0 mph 78% 0.00 in 232 W/m2
Country Meadow, Clay, NY, USA
Compliments of Weather Underground - 2 mb